Portada
METAR-TAF:

METAR-TAF

Aeropuertos :

Limoges, Francia

Aeropuerto de Limoges

latitud: 45-52N, longitud: 001-11E, altitud: 396 m

Observación

El informe se hizo hace 10 minutos, a las 16:30 UTC
Viento 9 kt del sur, variando entre este-sureste y sur-suroeste
Temperatura 28°C
Humedad 42%
Presión 1016 hPa
Visibilidad 10 km o más
sin nubes por debajo de 1500 m y sin presencia de cumulonimbus.

METAR: LFBL 281630Z AUTO 17009KT 120V200 CAVOK 28/14 Q1016 NOSIG

Hora: 18:40 (16:40 UTC)

Pronóstico

El informe se hizo hace 5 horas y 40 minutos, a las 11:00 UTC
Pronóstico válido del 28 a las 12 UTC al 29 a las 12 UTC
Viento 8 kt del sur
Visibilidad 10 km o más
sin nubes por debajo de 1500 m y sin presencia de cumulonimbus.

TAF: LFBL 281100Z 2812/2912 18008KT CAVOK

Observaciones y pronósticos meteorológicos de más de 4000 aeropuertos (mensajes METAR y TAF).

Los puntos amarillos y rojos representan las estaciones disponibles.

Ponga el ratón en el punto deseado para ver el nombre de la estación.

Haga clic para ver las observaciones y los pronósticos meteorológicos.

Para cambiar el mapa : haga clic en los botones verdes con una cruz de color negro para hacer un zoom, en el botón verde con un guión para alejar o en las flechas verdes para mapas adyacentes.


METAR-TAF: